sensor_id;sensor_type;location;lat;lon;timestamp;P1;durP1;ratioP1;P2;durP2;ratioP2
10094;SDS011;5086;50.830;7.102;2023-05-27T00:00:57;8.63;;;3.25;;
10094;SDS011;5086;50.830;7.102;2023-05-27T00:03:38;6.60;;;3.42;;
10094;SDS011;5086;50.830;7.102;2023-05-27T00:06:19;10.77;;;4.22;;
10094;SDS011;5086;50.830;7.102;2023-05-27T00:12:34;8.40;;;4.05;;
10094;SDS011;5086;50.830;7.102;2023-05-27T00:37:35;17.75;;;3.65;;
10094;SDS011;5086;50.830;7.102;2023-05-27T00:40:04;15.73;;;6.28;;
10094;SDS011;5086;50.830;7.102;2023-05-27T00:42:52;13.27;;;4.68;;
10094;SDS011;5086;50.830;7.102;2023-05-27T00:46:09;15.38;;;5.40;;
10094;SDS011;5086;50.830;7.102;2023-05-27T00:48:52;14.98;;;4.20;;
10094;SDS011;5086;50.830;7.102;2023-05-27T02:52:56;7.72;;;3.45;;
10094;SDS011;5086;50.830;7.102;2023-05-27T02:55:45;11.85;;;4.50;;
10094;SDS011;5086;50.830;7.102;2023-05-27T02:59:06;6.57;;;3.17;;
10094;SDS011;5086;50.830;7.102;2023-05-27T03:01:49;13.45;;;4.30;;
10094;SDS011;5086;50.830;7.102;2023-05-27T03:04:34;10.30;;;3.90;;
10094;SDS011;5086;50.830;7.102;2023-05-27T03:07:04;13.15;;;4.18;;
10094;SDS011;5086;50.830;7.102;2023-05-27T03:10:06;15.20;;;3.58;;
10094;SDS011;5086;50.830;7.102;2023-05-27T03:12:48;13.07;;;4.60;;
10094;SDS011;5086;50.830;7.102;2023-05-27T03:15:30;9.50;;;3.60;;
10094;SDS011;5086;50.830;7.102;2023-05-27T03:18:27;9.68;;;3.72;;
10094;SDS011;5086;50.830;7.102;2023-05-27T04:21:14;9.43;;;4.20;;
10094;SDS011;5086;50.830;7.102;2023-05-27T04:23:42;10.88;;;3.50;;
10094;SDS011;5086;50.830;7.102;2023-05-27T04:29:21;11.00;;;3.88;;
10094;SDS011;5086;50.830;7.102;2023-05-27T04:35:02;13.65;;;4.28;;
10094;SDS011;5086;50.830;7.102;2023-05-27T04:51:09;9.32;;;3.40;;
10094;SDS011;5086;50.830;7.102;2023-05-27T04:53:49;10.20;;;3.90;;
10094;SDS011;5086;50.830;7.102;2023-05-27T04:56:32;8.50;;;4.40;;
10094;SDS011;5086;50.830;7.102;2023-05-27T04:59:03;12.48;;;4.55;;
10094;SDS011;5086;50.830;7.102;2023-05-27T05:01:47;7.97;;;3.17;;
10094;SDS011;5086;50.830;7.102;2023-05-27T05:04:31;10.68;;;3.95;;
10094;SDS011;5086;50.830;7.102;2023-05-27T05:07:00;10.07;;;3.85;;
10094;SDS011;5086;50.830;7.102;2023-05-27T05:09:28;8.35;;;3.47;;
10094;SDS011;5086;50.830;7.102;2023-05-27T05:12:09;8.10;;;3.63;;
10094;SDS011;5086;50.830;7.102;2023-05-27T05:14:37;11.93;;;3.92;;
10094;SDS011;5086;50.830;7.102;2023-05-27T05:17:05;10.60;;;3.80;;
10094;SDS011;5086;50.830;7.102;2023-05-27T05:19:33;13.68;;;4.28;;
10094;SDS011;5086;50.830;7.102;2023-05-27T05:25:12;14.15;;;4.22;;
10094;SDS011;5086;50.830;7.102;2023-05-27T05:27:40;15.00;;;4.30;;
10094;SDS011;5086;50.830;7.102;2023-05-27T05:30:15;13.30;;;4.20;;
10094;SDS011;5086;50.830;7.102;2023-05-27T05:32:42;20.83;;;4.55;;
10094;SDS011;5086;50.830;7.102;2023-05-27T05:35:12;5.90;;;3.70;;
10094;SDS011;5086;50.830;7.102;2023-05-27T05:37:45;16.48;;;3.90;;
10094;SDS011;5086;50.830;7.102;2023-05-27T05:40:30;9.95;;;3.75;;
10094;SDS011;5086;50.830;7.102;2023-05-27T05:43:11;9.07;;;3.65;;
10094;SDS011;5086;50.830;7.102;2023-05-27T05:45:43;8.80;;;3.67;;
10094;SDS011;5086;50.830;7.102;2023-05-27T05:48:12;10.88;;;4.32;;
10094;SDS011;5086;50.830;7.102;2023-05-27T05:50:39;10.38;;;3.95;;
10094;SDS011;5086;50.830;7.102;2023-05-27T05:53:10;12.10;;;4.15;;
10094;SDS011;5086;50.830;7.102;2023-05-27T05:55:52;10.00;;;4.20;;
10094;SDS011;5086;50.830;7.102;2023-05-27T05:58:33;12.02;;;4.03;;
10094;SDS011;5086;50.830;7.102;2023-05-27T06:01:02;9.50;;;4.15;;
10094;SDS011;5086;50.830;7.102;2023-05-27T06:03:29;12.32;;;3.92;;
10094;SDS011;5086;50.830;7.102;2023-05-27T06:05:58;13.95;;;4.10;;
10094;SDS011;5086;50.830;7.102;2023-05-27T06:08:25;11.60;;;4.90;;
10094;SDS011;5086;50.830;7.102;2023-05-27T06:13:36;13.60;;;4.60;;
10094;SDS011;5086;50.830;7.102;2023-05-27T06:16:20;10.15;;;4.05;;
10094;SDS011;5086;50.830;7.102;2023-05-27T06:18:49;11.60;;;3.97;;
10094;SDS011;5086;50.830;7.102;2023-05-27T06:21:17;8.60;;;3.90;;
10094;SDS011;5086;50.830;7.102;2023-05-27T06:23:45;14.75;;;4.30;;
10094;SDS011;5086;50.830;7.102;2023-05-27T06:26:20;16.17;;;4.20;;
10094;SDS011;5086;50.830;7.102;2023-05-27T06:29:05;8.88;;;3.83;;
10094;SDS011;5086;50.830;7.102;2023-05-27T06:31:32;9.98;;;4.10;;
10094;SDS011;5086;50.830;7.102;2023-05-27T06:34:05;9.90;;;4.60;;
10094;SDS011;5086;50.830;7.102;2023-05-27T06:36:32;9.25;;;4.72;;
10094;SDS011;5086;50.830;7.102;2023-05-27T06:39:02;8.55;;;3.40;;
10094;SDS011;5086;50.830;7.102;2023-05-27T06:41:46;15.38;;;4.60;;
10094;SDS011;5086;50.830;7.102;2023-05-27T06:44:28;12.63;;;4.40;;
10094;SDS011;5086;50.830;7.102;2023-05-27T06:46:55;10.18;;;3.90;;
10094;SDS011;5086;50.830;7.102;2023-05-27T06:49:26;8.95;;;4.85;;
10094;SDS011;5086;50.830;7.102;2023-05-27T06:52:03;22.17;;;4.60;;
10094;SDS011;5086;50.830;7.102;2023-05-27T06:54:31;11.10;;;4.43;;
10094;SDS011;5086;50.830;7.102;2023-05-27T06:57:00;13.05;;;4.85;;
10094;SDS011;5086;50.830;7.102;2023-05-27T06:59:28;12.57;;;4.10;;
10094;SDS011;5086;50.830;7.102;2023-05-27T07:01:55;12.32;;;4.43;;
10094;SDS011;5086;50.830;7.102;2023-05-27T07:04:22;15.93;;;5.15;;
10094;SDS011;5086;50.830;7.102;2023-05-27T07:06:49;12.48;;;4.80;;
10094;SDS011;5086;50.830;7.102;2023-05-27T07:12:15;10.20;;;3.80;;
10094;SDS011;5086;50.830;7.102;2023-05-27T07:14:43;16.77;;;5.18;;
10094;SDS011;5086;50.830;7.102;2023-05-27T07:17:10;10.93;;;4.37;;
10094;SDS011;5086;50.830;7.102;2023-05-27T07:19:37;19.43;;;4.80;;
10094;SDS011;5086;50.830;7.102;2023-05-27T07:22:06;12.20;;;4.07;;
10094;SDS011;5086;50.830;7.102;2023-05-27T07:24:34;8.53;;;4.10;;
10094;SDS011;5086;50.830;7.102;2023-05-27T07:27:03;8.10;;;4.30;;
10094;SDS011;5086;50.830;7.102;2023-05-27T07:29:33;12.33;;;3.50;;
10094;SDS011;5086;50.830;7.102;2023-05-27T07:32:00;10.53;;;4.40;;
10094;SDS011;5086;50.830;7.102;2023-05-27T07:34:28;9.73;;;4.00;;
10094;SDS011;5086;50.830;7.102;2023-05-27T07:36:58;8.63;;;3.70;;
10094;SDS011;5086;50.830;7.102;2023-05-27T07:39:25;8.67;;;3.97;;
10094;SDS011;5086;50.830;7.102;2023-05-27T07:41:58;7.40;;;3.43;;
10094;SDS011;5086;50.830;7.102;2023-05-27T07:44:25;11.50;;;3.73;;
10094;SDS011;5086;50.830;7.102;2023-05-27T07:46:54;11.47;;;4.37;;
10094;SDS011;5086;50.830;7.102;2023-05-27T07:49:21;15.27;;;4.70;;
10094;SDS011;5086;50.830;7.102;2023-05-27T07:51:50;11.73;;;4.47;;
10094;SDS011;5086;50.830;7.102;2023-05-27T07:54:17;9.20;;;4.13;;
10094;SDS011;5086;50.830;7.102;2023-05-27T07:56:47;10.70;;;4.20;;
10094;SDS011;5086;50.830;7.102;2023-05-27T07:59:14;6.37;;;4.00;;
10094;SDS011;5086;50.830;7.102;2023-05-27T08:01:41;12.20;;;4.10;;
10094;SDS011;5086;50.830;7.102;2023-05-27T08:04:09;12.73;;;4.60;;
10094;SDS011;5086;50.830;7.102;2023-05-27T08:06:36;8.90;;;3.73;;
10094;SDS011;5086;50.830;7.102;2023-05-27T08:09:03;8.57;;;3.73;;
10094;SDS011;5086;50.830;7.102;2023-05-27T08:11:31;7.57;;;3.70;;
10094;SDS011;5086;50.830;7.102;2023-05-27T08:13:58;10.90;;;3.90;;
10094;SDS011;5086;50.830;7.102;2023-05-27T08:16:25;9.77;;;4.60;;
10094;SDS011;5086;50.830;7.102;2023-05-27T08:18:51;11.37;;;4.43;;
10094;SDS011;5086;50.830;7.102;2023-05-27T08:21:20;11.67;;;4.30;;
10094;SDS011;5086;50.830;7.102;2023-05-27T08:23:53;7.10;;;4.17;;
10094;SDS011;5086;50.830;7.102;2023-05-27T08:26:21;13.13;;;4.30;;
10094;SDS011;5086;50.830;7.102;2023-05-27T08:28:48;9.90;;;3.50;;
10094;SDS011;5086;50.830;7.102;2023-05-27T08:31:15;10.07;;;4.50;;
10094;SDS011;5086;50.830;7.102;2023-05-27T08:33:42;10.70;;;3.40;;
10094;SDS011;5086;50.830;7.102;2023-05-27T08:36:09;10.13;;;4.50;;
10094;SDS011;5086;50.830;7.102;2023-05-27T08:38:39;7.53;;;3.23;;
10094;SDS011;5086;50.830;7.102;2023-05-27T08:41:06;9.70;;;3.90;;
10094;SDS011;5086;50.830;7.102;2023-05-27T08:43:35;16.00;;;3.80;;
10094;SDS011;5086;50.830;7.102;2023-05-27T08:49:18;7.30;;;3.57;;
10094;SDS011;5086;50.830;7.102;2023-05-27T08:51:45;11.83;;;4.03;;
10094;SDS011;5086;50.830;7.102;2023-05-27T08:54:13;9.73;;;4.00;;
10094;SDS011;5086;50.830;7.102;2023-05-27T08:56:41;14.03;;;3.93;;
10094;SDS011;5086;50.830;7.102;2023-05-27T08:59:11;7.40;;;2.87;;
10094;SDS011;5086;50.830;7.102;2023-05-27T09:01:38;14.53;;;3.60;;
10094;SDS011;5086;50.830;7.102;2023-05-27T09:04:06;9.53;;;3.83;;
10094;SDS011;5086;50.830;7.102;2023-05-27T09:20:29;8.17;;;3.30;;
10094;SDS011;5086;50.830;7.102;2023-05-27T09:22:56;6.80;;;2.77;;
10094;SDS011;5086;50.830;7.102;2023-05-27T09:25:23;5.30;;;3.07;;
10094;SDS011;5086;50.830;7.102;2023-05-27T09:27:50;19.10;;;4.70;;
10094;SDS011;5086;50.830;7.102;2023-05-27T09:30:18;14.53;;;4.70;;
10094;SDS011;5086;50.830;7.102;2023-05-27T09:32:46;9.40;;;3.20;;
10094;SDS011;5086;50.830;7.102;2023-05-27T09:35:14;8.87;;;3.93;;
10094;SDS011;5086;50.830;7.102;2023-05-27T09:37:43;17.13;;;4.17;;
10094;SDS011;5086;50.830;7.102;2023-05-27T09:40:11;9.97;;;4.10;;
10094;SDS011;5086;50.830;7.102;2023-05-27T09:42:39;6.93;;;3.20;;
10094;SDS011;5086;50.830;7.102;2023-05-27T09:45:11;8.70;;;3.77;;
10094;SDS011;5086;50.830;7.102;2023-05-27T09:47:39;13.90;;;3.50;;
10094;SDS011;5086;50.830;7.102;2023-05-27T09:50:10;8.07;;;3.93;;
10094;SDS011;5086;50.830;7.102;2023-05-27T09:52:39;7.43;;;3.50;;
10094;SDS011;5086;50.830;7.102;2023-05-27T09:55:09;5.03;;;3.00;;
10094;SDS011;5086;50.830;7.102;2023-05-27T09:57:37;7.90;;;3.30;;
10094;SDS011;5086;50.830;7.102;2023-05-27T10:00:05;14.83;;;4.07;;
10094;SDS011;5086;50.830;7.102;2023-05-27T10:02:38;11.47;;;3.00;;
10094;SDS011;5086;50.830;7.102;2023-05-27T10:05:06;5.20;;;3.37;;
10094;SDS011;5086;50.830;7.102;2023-05-27T10:07:36;8.60;;;3.73;;
10094;SDS011;5086;50.830;7.102;2023-05-27T10:10:04;10.07;;;3.17;;
10094;SDS011;5086;50.830;7.102;2023-05-27T10:12:36;11.33;;;3.53;;
10094;SDS011;5086;50.830;7.102;2023-05-27T10:15:04;14.30;;;3.77;;
10094;SDS011;5086;50.830;7.102;2023-05-27T10:17:41;10.03;;;3.87;;
10094;SDS011;5086;50.830;7.102;2023-05-27T10:20:09;10.73;;;3.50;;
10094;SDS011;5086;50.830;7.102;2023-05-27T10:22:42;7.10;;;3.23;;
10094;SDS011;5086;50.830;7.102;2023-05-27T10:25:11;11.10;;;3.57;;
10094;SDS011;5086;50.830;7.102;2023-05-27T10:27:52;8.80;;;2.97;;
10094;SDS011;5086;50.830;7.102;2023-05-27T10:30:19;9.03;;;3.97;;
10094;SDS011;5086;50.830;7.102;2023-05-27T10:32:49;9.40;;;3.07;;
10094;SDS011;5086;50.830;7.102;2023-05-27T10:35:16;12.30;;;3.70;;
10094;SDS011;5086;50.830;7.102;2023-05-27T10:37:43;9.73;;;4.23;;
10094;SDS011;5086;50.830;7.102;2023-05-27T10:40:12;11.50;;;3.70;;
10094;SDS011;5086;50.830;7.102;2023-05-27T10:42:58;9.33;;;3.27;;
10094;SDS011;5086;50.830;7.102;2023-05-27T10:45:36;8.63;;;2.67;;
10094;SDS011;5086;50.830;7.102;2023-05-27T10:48:03;15.30;;;4.27;;
10094;SDS011;5086;50.830;7.102;2023-05-27T10:50:40;16.30;;;3.90;;
10094;SDS011;5086;50.830;7.102;2023-05-27T10:53:16;4.10;;;2.43;;
10094;SDS011;5086;50.830;7.102;2023-05-27T10:55:44;6.80;;;3.03;;
10094;SDS011;5086;50.830;7.102;2023-05-27T10:58:14;4.50;;;2.90;;
10094;SDS011;5086;50.830;7.102;2023-05-27T11:00:41;6.73;;;2.80;;
10094;SDS011;5086;50.830;7.102;2023-05-27T11:03:15;10.10;;;3.50;;
10094;SDS011;5086;50.830;7.102;2023-05-27T11:05:43;5.53;;;2.93;;
10094;SDS011;5086;50.830;7.102;2023-05-27T11:08:11;10.13;;;3.83;;
10094;SDS011;5086;50.830;7.102;2023-05-27T11:10:39;7.50;;;3.17;;
10094;SDS011;5086;50.830;7.102;2023-05-27T11:13:07;9.23;;;2.60;;
10094;SDS011;5086;50.830;7.102;2023-05-27T11:15:39;9.43;;;2.77;;
10094;SDS011;5086;50.830;7.102;2023-05-27T11:18:07;7.60;;;3.70;;
10094;SDS011;5086;50.830;7.102;2023-05-27T11:20:35;9.33;;;3.27;;
10094;SDS011;5086;50.830;7.102;2023-05-27T11:23:02;4.43;;;3.03;;
10094;SDS011;5086;50.830;7.102;2023-05-27T11:25:39;4.60;;;2.83;;
10094;SDS011;5086;50.830;7.102;2023-05-27T11:28:12;9.80;;;3.40;;
10094;SDS011;5086;50.830;7.102;2023-05-27T11:30:42;18.90;;;3.70;;
10094;SDS011;5086;50.830;7.102;2023-05-27T11:33:09;10.23;;;2.97;;
10094;SDS011;5086;50.830;7.102;2023-05-27T11:35:36;7.20;;;2.87;;
10094;SDS011;5086;50.830;7.102;2023-05-27T11:38:04;9.93;;;3.40;;
10094;SDS011;5086;50.830;7.102;2023-05-27T11:40:44;7.80;;;3.07;;
10094;SDS011;5086;50.830;7.102;2023-05-27T11:43:20;5.10;;;2.87;;
10094;SDS011;5086;50.830;7.102;2023-05-27T11:45:51;6.90;;;3.10;;
10094;SDS011;5086;50.830;7.102;2023-05-27T11:48:18;7.70;;;2.87;;
10094;SDS011;5086;50.830;7.102;2023-05-27T11:50:45;10.23;;;2.87;;
10094;SDS011;5086;50.830;7.102;2023-05-27T11:53:14;6.93;;;2.50;;
10094;SDS011;5086;50.830;7.102;2023-05-27T11:55:42;6.03;;;2.90;;
10094;SDS011;5086;50.830;7.102;2023-05-27T11:58:11;4.83;;;2.63;;
10094;SDS011;5086;50.830;7.102;2023-05-27T12:00:39;5.83;;;2.50;;
10094;SDS011;5086;50.830;7.102;2023-05-27T12:03:07;3.67;;;2.50;;
10094;SDS011;5086;50.830;7.102;2023-05-27T12:05:34;4.70;;;2.70;;
10094;SDS011;5086;50.830;7.102;2023-05-27T12:08:01;3.97;;;2.57;;
10094;SDS011;5086;50.830;7.102;2023-05-27T12:10:28;4.10;;;2.87;;
10094;SDS011;5086;50.830;7.102;2023-05-27T12:13:02;7.47;;;3.03;;
10094;SDS011;5086;50.830;7.102;2023-05-27T12:15:29;15.30;;;3.10;;
10094;SDS011;5086;50.830;7.102;2023-05-27T12:17:56;6.03;;;3.03;;
10094;SDS011;5086;50.830;7.102;2023-05-27T12:20:27;4.47;;;2.87;;
10094;SDS011;5086;50.830;7.102;2023-05-27T12:22:54;6.33;;;2.60;;
10094;SDS011;5086;50.830;7.102;2023-05-27T12:25:21;7.83;;;3.00;;
10094;SDS011;5086;50.830;7.102;2023-05-27T12:27:48;4.17;;;3.10;;
10094;SDS011;5086;50.830;7.102;2023-05-27T12:30:15;4.93;;;2.63;;
10094;SDS011;5086;50.830;7.102;2023-05-27T12:32:42;8.30;;;3.00;;
10094;SDS011;5086;50.830;7.102;2023-05-27T12:35:10;9.40;;;3.50;;
10094;SDS011;5086;50.830;7.102;2023-05-27T12:37:38;6.80;;;2.90;;
10094;SDS011;5086;50.830;7.102;2023-05-27T12:40:07;6.83;;;3.03;;
10094;SDS011;5086;50.830;7.102;2023-05-27T12:42:39;7.77;;;3.07;;
10094;SDS011;5086;50.830;7.102;2023-05-27T12:45:06;4.80;;;2.53;;
10094;SDS011;5086;50.830;7.102;2023-05-27T12:47:37;5.63;;;2.87;;
10094;SDS011;5086;50.830;7.102;2023-05-27T12:50:09;7.73;;;2.50;;
10094;SDS011;5086;50.830;7.102;2023-05-27T12:52:38;5.60;;;2.47;;
10094;SDS011;5086;50.830;7.102;2023-05-27T12:55:13;8.53;;;3.10;;
10094;SDS011;5086;50.830;7.102;2023-05-27T12:57:42;5.33;;;2.90;;
10094;SDS011;5086;50.830;7.102;2023-05-27T13:00:13;9.70;;;2.73;;
10094;SDS011;5086;50.830;7.102;2023-05-27T13:02:41;6.20;;;2.97;;
10094;SDS011;5086;50.830;7.102;2023-05-27T13:05:12;5.13;;;2.50;;
10094;SDS011;5086;50.830;7.102;2023-05-27T13:10:28;7.10;;;2.83;;
10094;SDS011;5086;50.830;7.102;2023-05-27T13:12:59;5.73;;;2.67;;
10094;SDS011;5086;50.830;7.102;2023-05-27T13:15:40;5.00;;;2.50;;
10094;SDS011;5086;50.830;7.102;2023-05-27T13:18:07;4.77;;;2.30;;
10094;SDS011;5086;50.830;7.102;2023-05-27T13:20:35;5.77;;;2.67;;
10094;SDS011;5086;50.830;7.102;2023-05-27T13:23:04;4.10;;;2.60;;
10094;SDS011;5086;50.830;7.102;2023-05-27T13:25:31;4.57;;;2.60;;
10094;SDS011;5086;50.830;7.102;2023-05-27T13:27:58;8.23;;;2.80;;
10094;SDS011;5086;50.830;7.102;2023-05-27T13:30:27;5.10;;;2.70;;
10094;SDS011;5086;50.830;7.102;2023-05-27T13:32:54;15.33;;;2.87;;
10094;SDS011;5086;50.830;7.102;2023-05-27T13:35:22;4.00;;;2.50;;
10094;SDS011;5086;50.830;7.102;2023-05-27T13:37:52;4.90;;;2.70;;
10094;SDS011;5086;50.830;7.102;2023-05-27T13:40:21;4.53;;;2.40;;
10094;SDS011;5086;50.830;7.102;2023-05-27T13:42:48;5.13;;;2.30;;
10094;SDS011;5086;50.830;7.102;2023-05-27T13:45:27;3.80;;;2.40;;
10094;SDS011;5086;50.830;7.102;2023-05-27T13:48:07;2.90;;;2.00;;
10094;SDS011;5086;50.830;7.102;2023-05-27T13:50:34;3.33;;;2.40;;
10094;SDS011;5086;50.830;7.102;2023-05-27T13:53:05;6.33;;;2.70;;
10094;SDS011;5086;50.830;7.102;2023-05-27T13:55:39;2.90;;;2.23;;
10094;SDS011;5086;50.830;7.102;2023-05-27T13:59:36;9.13;;;2.80;;
10094;SDS011;5086;50.830;7.102;2023-05-27T14:01:05;4.33;;;2.63;;
10094;SDS011;5086;50.830;7.102;2023-05-27T14:03:33;8.73;;;3.10;;
10094;SDS011;5086;50.830;7.102;2023-05-27T14:06:37;5.17;;;2.80;;
10094;SDS011;5086;50.830;7.102;2023-05-27T14:09:10;13.73;;;3.13;;
10094;SDS011;5086;50.830;7.102;2023-05-27T14:11:39;6.90;;;2.77;;
10094;SDS011;5086;50.830;7.102;2023-05-27T14:14:06;6.47;;;2.60;;
10094;SDS011;5086;50.830;7.102;2023-05-27T14:16:32;4.77;;;2.70;;
10094;SDS011;5086;50.830;7.102;2023-05-27T14:18:59;3.63;;;2.53;;
10094;SDS011;5086;50.830;7.102;2023-05-27T14:24:18;4.17;;;3.03;;
10094;SDS011;5086;50.830;7.102;2023-05-27T14:29:33;7.60;;;2.43;;
10094;SDS011;5086;50.830;7.102;2023-05-27T14:32:01;5.57;;;3.10;;
10094;SDS011;5086;50.830;7.102;2023-05-27T14:34:28;4.27;;;2.50;;
10094;SDS011;5086;50.830;7.102;2023-05-27T14:36:55;8.43;;;3.60;;
10094;SDS011;5086;50.830;7.102;2023-05-27T14:39:33;5.30;;;2.30;;
10094;SDS011;5086;50.830;7.102;2023-05-27T14:42:00;5.50;;;2.70;;
10094;SDS011;5086;50.830;7.102;2023-05-27T14:44:31;6.13;;;2.73;;
10094;SDS011;5086;50.830;7.102;2023-05-27T14:47:00;9.30;;;3.20;;
10094;SDS011;5086;50.830;7.102;2023-05-27T14:49:27;5.50;;;3.17;;
10094;SDS011;5086;50.830;7.102;2023-05-27T14:51:56;7.83;;;3.80;;
10094;SDS011;5086;50.830;7.102;2023-05-27T14:54:26;4.73;;;2.90;;
10094;SDS011;5086;50.830;7.102;2023-05-27T14:56:53;4.80;;;2.90;;
10094;SDS011;5086;50.830;7.102;2023-05-27T14:59:20;7.33;;;3.00;;
10094;SDS011;5086;50.830;7.102;2023-05-27T15:01:51;5.93;;;2.70;;
10094;SDS011;5086;50.830;7.102;2023-05-27T15:04:21;3.97;;;2.40;;
10094;SDS011;5086;50.830;7.102;2023-05-27T15:06:48;6.30;;;2.77;;
10094;SDS011;5086;50.830;7.102;2023-05-27T15:09:17;6.83;;;2.90;;
10094;SDS011;5086;50.830;7.102;2023-05-27T15:11:44;10.60;;;2.93;;
10094;SDS011;5086;50.830;7.102;2023-05-27T15:14:14;4.77;;;2.50;;
10094;SDS011;5086;50.830;7.102;2023-05-27T15:16:41;4.97;;;2.53;;
10094;SDS011;5086;50.830;7.102;2023-05-27T15:19:09;7.43;;;2.50;;
10094;SDS011;5086;50.830;7.102;2023-05-27T15:21:36;4.70;;;2.60;;
10094;SDS011;5086;50.830;7.102;2023-05-27T15:24:03;5.97;;;2.93;;
10094;SDS011;5086;50.830;7.102;2023-05-27T15:26:30;9.30;;;2.83;;
10094;SDS011;5086;50.830;7.102;2023-05-27T15:28:57;4.27;;;2.40;;
10094;SDS011;5086;50.830;7.102;2023-05-27T15:31:24;4.83;;;2.83;;
10094;SDS011;5086;50.830;7.102;2023-05-27T15:33:53;4.10;;;2.50;;
10094;SDS011;5086;50.830;7.102;2023-05-27T15:36:21;3.17;;;1.97;;
10094;SDS011;5086;50.830;7.102;2023-05-27T15:38:54;6.37;;;2.47;;
10094;SDS011;5086;50.830;7.102;2023-05-27T15:41:24;6.53;;;2.80;;
10094;SDS011;5086;50.830;7.102;2023-05-27T15:43:51;6.93;;;2.80;;
10094;SDS011;5086;50.830;7.102;2023-05-27T15:46:20;3.90;;;3.10;;
10094;SDS011;5086;50.830;7.102;2023-05-27T15:48:53;3.97;;;2.60;;
10094;SDS011;5086;50.830;7.102;2023-05-27T15:51:26;5.33;;;2.40;;
10094;SDS011;5086;50.830;7.102;2023-05-27T15:53:54;3.80;;;2.30;;
10094;SDS011;5086;50.830;7.102;2023-05-27T15:56:21;3.17;;;1.93;;
10094;SDS011;5086;50.830;7.102;2023-05-27T15:59:02;3.50;;;2.40;;
10094;SDS011;5086;50.830;7.102;2023-05-27T16:01:29;3.13;;;2.47;;
10094;SDS011;5086;50.830;7.102;2023-05-27T16:03:55;7.80;;;2.57;;
10094;SDS011;5086;50.830;7.102;2023-05-27T16:06:23;3.60;;;2.20;;
10094;SDS011;5086;50.830;7.102;2023-05-27T16:08:52;10.00;;;2.97;;
10094;SDS011;5086;50.830;7.102;2023-05-27T16:11:24;6.83;;;2.47;;
10094;SDS011;5086;50.830;7.102;2023-05-27T16:13:56;7.23;;;2.53;;
10094;SDS011;5086;50.830;7.102;2023-05-27T16:16:26;4.33;;;2.70;;
10094;SDS011;5086;50.830;7.102;2023-05-27T16:18:53;3.93;;;2.33;;
10094;SDS011;5086;50.830;7.102;2023-05-27T16:21:22;3.73;;;2.70;;
10094;SDS011;5086;50.830;7.102;2023-05-27T16:23:52;4.60;;;2.47;;
10094;SDS011;5086;50.830;7.102;2023-05-27T16:26:20;5.50;;;2.63;;
10094;SDS011;5086;50.830;7.102;2023-05-27T16:28:47;5.57;;;2.50;;
10094;SDS011;5086;50.830;7.102;2023-05-27T16:31:14;3.70;;;2.27;;
10094;SDS011;5086;50.830;7.102;2023-05-27T16:33:41;5.73;;;2.50;;
10094;SDS011;5086;50.830;7.102;2023-05-27T16:36:11;6.70;;;2.53;;
10094;SDS011;5086;50.830;7.102;2023-05-27T16:38:41;6.93;;;2.60;;
10094;SDS011;5086;50.830;7.102;2023-05-27T16:41:10;4.00;;;2.47;;
10094;SDS011;5086;50.830;7.102;2023-05-27T16:43:37;7.83;;;2.90;;
10094;SDS011;5086;50.830;7.102;2023-05-27T16:46:04;6.00;;;2.83;;
10094;SDS011;5086;50.830;7.102;2023-05-27T16:48:31;6.83;;;2.80;;
10094;SDS011;5086;50.830;7.102;2023-05-27T16:50:58;4.83;;;2.63;;
10094;SDS011;5086;50.830;7.102;2023-05-27T16:53:27;5.30;;;2.80;;
10094;SDS011;5086;50.830;7.102;2023-05-27T16:55:53;5.60;;;2.50;;
10094;SDS011;5086;50.830;7.102;2023-05-27T16:58:21;4.83;;;2.23;;
10094;SDS011;5086;50.830;7.102;2023-05-27T17:00:54;3.60;;;2.60;;
10094;SDS011;5086;50.830;7.102;2023-05-27T17:03:27;6.00;;;2.50;;
10094;SDS011;5086;50.830;7.102;2023-05-27T17:05:59;4.10;;;2.30;;
10094;SDS011;5086;50.830;7.102;2023-05-27T17:08:29;4.40;;;2.30;;
10094;SDS011;5086;50.830;7.102;2023-05-27T17:11:05;5.50;;;2.50;;
10094;SDS011;5086;50.830;7.102;2023-05-27T17:13:44;4.70;;;2.90;;
10094;SDS011;5086;50.830;7.102;2023-05-27T17:16:17;6.00;;;2.40;;
10094;SDS011;5086;50.830;7.102;2023-05-27T17:18:44;2.93;;;2.40;;
10094;SDS011;5086;50.830;7.102;2023-05-27T17:21:17;5.23;;;2.23;;
10094;SDS011;5086;50.830;7.102;2023-05-27T17:23:56;4.57;;;2.40;;
10094;SDS011;5086;50.830;7.102;2023-05-27T17:26:40;6.27;;;2.67;;
10094;SDS011;5086;50.830;7.102;2023-05-27T17:29:25;4.80;;;2.77;;
10094;SDS011;5086;50.830;7.102;2023-05-27T17:31:52;6.93;;;2.30;;
10094;SDS011;5086;50.830;7.102;2023-05-27T17:34:19;4.63;;;2.57;;
10094;SDS011;5086;50.830;7.102;2023-05-27T17:37:00;5.30;;;2.50;;
10094;SDS011;5086;50.830;7.102;2023-05-27T17:39:43;3.43;;;2.27;;
10094;SDS011;5086;50.830;7.102;2023-05-27T17:42:10;7.70;;;2.77;;
10094;SDS011;5086;50.830;7.102;2023-05-27T17:44:39;5.27;;;2.50;;
10094;SDS011;5086;50.830;7.102;2023-05-27T17:47:05;6.30;;;3.57;;
10094;SDS011;5086;50.830;7.102;2023-05-27T17:49:32;4.00;;;2.40;;
10094;SDS011;5086;50.830;7.102;2023-05-27T17:51:59;4.90;;;2.30;;
10094;SDS011;5086;50.830;7.102;2023-05-27T17:54:26;5.60;;;2.70;;
10094;SDS011;5086;50.830;7.102;2023-05-27T17:56:53;4.20;;;2.50;;
10094;SDS011;5086;50.830;7.102;2023-05-27T17:59:20;4.00;;;2.67;;
10094;SDS011;5086;50.830;7.102;2023-05-27T18:01:48;3.80;;;2.30;;
10094;SDS011;5086;50.830;7.102;2023-05-27T18:04:15;4.27;;;2.53;;
10094;SDS011;5086;50.830;7.102;2023-05-27T18:06:41;5.70;;;2.50;;
10094;SDS011;5086;50.830;7.102;2023-05-27T18:09:08;3.73;;;2.60;;
10094;SDS011;5086;50.830;7.102;2023-05-27T18:11:35;5.03;;;2.33;;
10094;SDS011;5086;50.830;7.102;2023-05-27T18:14:02;4.07;;;2.40;;
10094;SDS011;5086;50.830;7.102;2023-05-27T18:16:30;5.03;;;2.70;;
10094;SDS011;5086;50.830;7.102;2023-05-27T18:18:59;8.73;;;2.47;;
10094;SDS011;5086;50.830;7.102;2023-05-27T18:21:26;5.50;;;2.10;;
10094;SDS011;5086;50.830;7.102;2023-05-27T18:23:52;4.83;;;2.60;;
10094;SDS011;5086;50.830;7.102;2023-05-27T18:26:19;4.50;;;2.20;;
10094;SDS011;5086;50.830;7.102;2023-05-27T18:28:46;3.03;;;2.20;;
10094;SDS011;5086;50.830;7.102;2023-05-27T18:31:13;6.30;;;2.20;;
10094;SDS011;5086;50.830;7.102;2023-05-27T18:33:40;6.07;;;2.40;;
10094;SDS011;5086;50.830;7.102;2023-05-27T18:36:08;4.03;;;2.50;;
10094;SDS011;5086;50.830;7.102;2023-05-27T18:38:35;2.97;;;2.20;;
10094;SDS011;5086;50.830;7.102;2023-05-27T18:41:04;4.20;;;2.50;;
10094;SDS011;5086;50.830;7.102;2023-05-27T18:43:30;5.40;;;2.77;;
10094;SDS011;5086;50.830;7.102;2023-05-27T18:45:57;7.10;;;3.20;;
10094;SDS011;5086;50.830;7.102;2023-05-27T18:48:25;6.53;;;3.47;;
10094;SDS011;5086;50.830;7.102;2023-05-27T18:50:52;6.10;;;3.13;;
10094;SDS011;5086;50.830;7.102;2023-05-27T18:53:21;8.97;;;4.47;;
10094;SDS011;5086;50.830;7.102;2023-05-27T18:55:48;7.63;;;3.60;;
10094;SDS011;5086;50.830;7.102;2023-05-27T18:58:15;13.30;;;4.20;;
10094;SDS011;5086;50.830;7.102;2023-05-27T19:00:42;16.93;;;3.43;;
10094;SDS011;5086;50.830;7.102;2023-05-27T19:03:10;8.10;;;3.07;;
10094;SDS011;5086;50.830;7.102;2023-05-27T19:05:40;11.13;;;3.50;;
10094;SDS011;5086;50.830;7.102;2023-05-27T19:08:08;9.60;;;3.70;;
10094;SDS011;5086;50.830;7.102;2023-05-27T19:10:36;11.80;;;4.70;;
10094;SDS011;5086;50.830;7.102;2023-05-27T19:13:04;10.83;;;3.77;;
10094;SDS011;5086;50.830;7.102;2023-05-27T19:15:31;6.60;;;3.50;;
10094;SDS011;5086;50.830;7.102;2023-05-27T19:17:58;10.13;;;3.87;;
10094;SDS011;5086;50.830;7.102;2023-05-27T19:20:25;10.23;;;4.07;;
10094;SDS011;5086;50.830;7.102;2023-05-27T19:22:52;8.60;;;3.80;;
10094;SDS011;5086;50.830;7.102;2023-05-27T19:25:19;10.47;;;3.50;;
10094;SDS011;5086;50.830;7.102;2023-05-27T19:27:47;10.23;;;4.33;;
10094;SDS011;5086;50.830;7.102;2023-05-27T19:30:14;11.90;;;3.90;;
10094;SDS011;5086;50.830;7.102;2023-05-27T19:32:41;10.90;;;3.83;;
10094;SDS011;5086;50.830;7.102;2023-05-27T19:35:08;6.03;;;3.30;;
10094;SDS011;5086;50.830;7.102;2023-05-27T19:37:35;8.17;;;3.43;;
10094;SDS011;5086;50.830;7.102;2023-05-27T19:40:02;8.87;;;3.23;;